createdAt,value
2018-02-20T00:01:03.583Z,99.90
2018-02-20T00:03:07.035Z,99.90
2018-02-20T00:05:09.682Z,99.90
2018-02-20T00:07:12.315Z,99.90
2018-02-20T00:09:14.982Z,99.90
2018-02-20T00:11:17.614Z,99.90
2018-02-20T00:13:20.251Z,99.90
2018-02-20T00:15:28.390Z,99.90
2018-02-20T01:58:15.872Z,99.90
2018-02-20T02:00:18.513Z,99.90
2018-02-20T02:02:21.156Z,99.90
2018-02-20T02:04:23.849Z,99.90
2018-02-20T02:06:26.510Z,99.90
2018-02-20T02:08:29.170Z,99.90
2018-02-20T02:10:31.845Z,99.90
2018-02-20T02:12:34.500Z,99.90
2018-02-20T02:14:37.170Z,99.90
2018-02-20T02:53:22.796Z,99.90
2018-02-20T02:55:26.239Z,99.90
2018-02-20T02:57:31.072Z,99.90
2018-02-20T02:59:33.809Z,99.90
2018-02-20T03:01:36.512Z,99.90
2018-02-20T03:03:39.195Z,99.90
2018-02-20T03:05:41.858Z,99.90
2018-02-20T03:07:44.673Z,99.90
2018-02-20T03:09:47.335Z,99.90
2018-02-20T03:11:50.003Z,99.90
2018-02-20T03:13:52.653Z,99.90
2018-02-20T03:15:55.296Z,99.90
2018-02-20T03:17:58.731Z,99.90
2018-02-20T03:20:01.383Z,99.90
2018-02-20T03:22:04.177Z,99.90
2018-02-20T03:24:06.899Z,99.90
2018-02-20T03:26:09.555Z,99.90
2018-02-20T03:28:12.242Z,99.90
2018-02-20T03:30:14.903Z,99.90
2018-02-20T03:32:17.567Z,99.90
2018-02-20T03:34:20.230Z,99.90
2018-02-20T03:36:22.895Z,99.90
2018-02-20T03:38:25.635Z,99.90
2018-02-20T03:40:28.309Z,99.90
2018-02-20T03:42:30.962Z,99.90
2018-02-20T03:44:33.638Z,99.90
2018-02-20T03:46:36.315Z,99.90
2018-02-20T03:48:38.978Z,99.90
2018-02-20T03:50:41.648Z,99.90
2018-02-20T03:52:44.424Z,99.90
2018-02-20T03:54:47.076Z,99.90
2018-02-20T03:56:49.755Z,99.90
2018-02-20T03:58:52.411Z,99.90
2018-02-20T04:00:55.954Z,99.90
2018-02-20T04:02:58.625Z,99.90
2018-02-20T04:05:01.286Z,99.90
2018-02-20T04:07:04.278Z,99.90
2018-02-20T04:09:06.932Z,99.90
2018-02-20T04:11:10.403Z,99.90
2018-02-20T04:13:13.050Z,99.90
2018-02-20T04:15:15.756Z,99.90
2018-02-20T04:17:18.458Z,99.90
2018-02-20T04:19:22.083Z,99.90
2018-02-20T04:21:24.828Z,99.90
2018-02-20T04:23:27.621Z,99.90
2018-02-20T04:25:30.295Z,99.90
2018-02-20T04:27:32.977Z,99.90
2018-02-20T04:29:35.663Z,99.90
2018-02-20T04:31:38.403Z,99.90
2018-02-20T04:33:41.864Z,99.90
2018-02-20T04:35:44.538Z,99.90
2018-02-20T04:37:47.233Z,99.90
2018-02-20T04:39:49.909Z,99.90
2018-02-20T04:41:52.580Z,99.90
2018-02-20T04:43:55.276Z,99.90
2018-02-20T04:45:58.013Z,99.90
2018-02-20T04:48:00.679Z,99.90
2018-02-20T04:50:03.328Z,99.90
2018-02-20T04:52:06.092Z,99.90
2018-02-20T04:54:10.053Z,99.90
2018-02-20T04:56:12.722Z,99.90
2018-02-20T04:58:15.423Z,99.90
2018-02-20T05:00:18.073Z,99.90
2018-02-20T05:02:20.747Z,99.90
2018-02-20T05:04:23.418Z,99.90
2018-02-20T05:06:26.118Z,99.90
2018-02-20T05:08:28.800Z,99.90
2018-02-20T05:10:31.464Z,99.90
2018-02-20T05:12:34.114Z,99.90
2018-02-20T05:14:36.806Z,99.90
2018-02-20T05:16:39.476Z,99.90
2018-02-20T05:18:42.117Z,99.90
2018-02-20T05:20:45.636Z,99.90
2018-02-20T05:22:48.286Z,99.90
2018-02-20T05:24:51.703Z,99.90
2018-02-20T05:26:54.418Z,99.90
2018-02-20T05:28:57.075Z,99.90
2018-02-20T05:30:59.943Z,99.90
2018-02-20T05:33:02.663Z,99.90
2018-02-20T05:35:05.310Z,99.90
2018-02-20T05:37:07.976Z,99.90
2018-02-20T05:39:10.677Z,99.90
2018-02-20T05:41:13.365Z,99.90
2018-02-20T05:43:16.056Z,99.90
2018-02-20T05:45:18.741Z,99.90
2018-02-20T05:47:21.717Z,99.90
2018-02-20T05:49:24.476Z,99.90
2018-02-20T05:51:27.186Z,99.90
2018-02-20T05:53:30.623Z,99.90
2018-02-20T05:55:33.316Z,99.90
2018-02-20T05:57:35.994Z,99.90
2018-02-20T05:59:38.670Z,99.90
2018-02-20T06:01:41.360Z,99.90
2018-02-20T06:03:44.044Z,99.90
2018-02-20T06:05:46.727Z,99.90
2018-02-20T06:07:50.376Z,99.90
2018-02-20T06:09:53.500Z,99.90
2018-02-20T06:11:56.417Z,99.90
2018-02-20T06:13:59.094Z,99.90
2018-02-20T06:16:02.567Z,99.90
2018-02-20T06:18:06.133Z,99.90
2018-02-20T06:20:08.859Z,99.90
2018-02-20T06:22:11.540Z,99.90
2018-02-20T06:24:14.229Z,99.90
2018-02-20T06:26:17.031Z,99.90
2018-02-20T06:28:19.742Z,99.90
2018-02-20T06:30:22.411Z,99.90
2018-02-20T06:32:25.150Z,99.90
2018-02-20T06:34:27.944Z,99.90
2018-02-20T06:36:30.663Z,99.90
2018-02-20T06:38:34.089Z,99.90
2018-02-20T06:40:36.764Z,99.90
2018-02-20T06:42:39.447Z,99.90
2018-02-20T06:44:42.133Z,99.90
2018-02-20T06:46:44.999Z,99.90
2018-02-20T06:48:47.708Z,99.90
2018-02-20T06:50:50.419Z,99.90
2018-02-20T06:52:53.866Z,99.90
2018-02-20T06:54:56.528Z,99.90
2018-02-20T06:56:59.211Z,99.90
2018-02-20T06:59:01.872Z,99.90
2018-02-20T07:01:04.537Z,99.90
2018-02-20T07:03:07.226Z,99.90
2018-02-20T07:05:09.886Z,99.90
2018-02-20T07:07:12.543Z,99.90
2018-02-20T07:09:15.994Z,99.90
2018-02-20T07:11:18.658Z,99.90
2018-02-20T07:13:21.305Z,99.90
2018-02-20T07:15:24.742Z,99.90
2018-02-20T07:17:27.410Z,99.90
2018-02-20T07:19:30.084Z,99.90
2018-02-20T07:21:32.779Z,99.90
2018-02-20T07:23:35.428Z,99.90
2018-02-20T07:25:38.076Z,99.90
2018-02-20T07:27:41.518Z,99.90
2018-02-20T07:29:44.164Z,99.90
2018-02-20T07:31:46.912Z,99.90
2018-02-20T07:33:50.354Z,99.90
2018-02-20T07:35:53.026Z,99.90
2018-02-20T07:37:55.693Z,99.90
2018-02-20T07:39:58.390Z,99.90
2018-02-20T07:42:01.097Z,99.90
2018-02-20T07:44:04.575Z,99.90
2018-02-20T07:46:07.356Z,99.90
2018-02-20T07:48:10.014Z,99.90
2018-02-20T07:50:12.664Z,99.90
2018-02-20T07:52:15.374Z,99.90
2018-02-20T07:54:18.797Z,99.90
2018-02-20T07:56:21.446Z,99.90
2018-02-20T07:58:24.132Z,99.90
2018-02-20T08:00:26.903Z,99.90
2018-02-20T08:02:29.594Z,99.90
2018-02-20T08:04:32.305Z,99.90
2018-02-20T08:06:34.998Z,99.90
2018-02-20T08:08:37.681Z,99.90
2018-02-20T08:10:40.494Z,99.90
2018-02-20T08:12:43.150Z,99.90
2018-02-20T08:14:45.878Z,99.90
2018-02-20T08:16:49.309Z,99.90
2018-02-20T08:18:52.266Z,99.90
2018-02-20T08:20:55.714Z,99.90
2018-02-20T08:22:58.372Z,99.90
2018-02-20T08:25:01.036Z,99.90
2018-02-20T08:27:03.735Z,99.90
2018-02-20T08:29:07.607Z,99.90
2018-02-20T08:31:10.769Z,99.90
2018-02-20T08:33:14.227Z,99.90
2018-02-20T08:35:16.868Z,99.90
2018-02-20T08:37:19.536Z,99.90
2018-02-20T08:39:22.217Z,99.90
2018-02-20T08:41:24.891Z,99.90
2018-02-20T08:43:27.615Z,99.60
2018-02-20T08:45:30.297Z,99.90
2018-02-20T08:47:32.946Z,98.30
2018-02-20T08:49:35.618Z,99.30
2018-02-20T08:51:38.470Z,99.20
2018-02-20T08:53:41.179Z,96.00
2018-02-20T08:55:43.876Z,94.30
2018-02-20T08:57:46.554Z,96.40
2018-02-20T08:59:49.219Z,94.70
2018-02-20T09:01:51.895Z,95.70
2018-02-20T09:03:54.544Z,93.50
2018-02-20T09:05:57.185Z,93.60
2018-02-20T09:08:00.631Z,99.90
2018-02-20T09:10:04.118Z,99.70
2018-02-20T09:12:06.982Z,99.00
2018-02-20T09:14:09.654Z,99.90
2018-02-20T09:16:12.305Z,97.00
2018-02-20T09:18:15.728Z,99.80
2018-02-20T09:20:18.402Z,99.80
2018-02-20T09:22:21.045Z,99.60
2018-02-20T09:24:24.479Z,94.30
2018-02-20T09:26:27.302Z,94.30
2018-02-20T09:28:29.959Z,96.90
2018-02-20T09:30:32.628Z,96.90
2018-02-20T09:32:36.127Z,96.20
2018-02-20T09:34:38.797Z,96.20
2018-02-20T09:36:41.496Z,94.60
2018-02-20T09:38:44.143Z,91.20
2018-02-20T09:40:46.798Z,81.90
2018-02-20T09:42:49.500Z,73.90
2018-02-20T09:44:52.149Z,78.20
2018-02-20T09:46:54.826Z,96.10
2018-02-20T09:48:57.530Z,91.90
2018-02-20T09:51:00.201Z,86.70
2018-02-20T09:53:02.861Z,88.50
2018-02-20T09:55:05.563Z,94.50
2018-02-20T09:57:08.271Z,90.00
2018-02-20T09:59:11.707Z,86.20
2018-02-20T10:01:14.445Z,86.00
2018-02-20T10:03:17.074Z,83.20
2018-02-20T10:05:19.923Z,82.90
2018-02-20T10:07:22.610Z,92.40
2018-02-20T10:09:25.279Z,91.40
2018-02-20T10:11:28.102Z,92.40
2018-02-20T10:13:30.750Z,91.10
2018-02-20T10:15:33.403Z,94.80
2018-02-20T10:17:36.080Z,91.80
2018-02-20T10:19:38.735Z,88.20
2018-02-20T10:21:42.285Z,93.50
2018-02-20T10:23:44.966Z,93.50
2018-02-20T10:25:47.623Z,94.90
2018-02-20T10:27:50.278Z,93.10
2018-02-20T10:29:52.944Z,91.00
2018-02-20T10:31:56.375Z,93.40
2018-02-20T10:33:59.069Z,93.40
2018-02-20T10:36:02.478Z,99.30
2018-02-20T10:38:05.125Z,99.30
2018-02-20T10:40:07.819Z,99.90
2018-02-20T10:42:10.479Z,99.90
2018-02-20T10:44:13.159Z,99.90
2018-02-20T10:46:15.816Z,99.90
2018-02-20T10:48:18.491Z,99.90
2018-02-20T10:50:21.155Z,99.90
2018-02-20T10:52:23.853Z,99.90
2018-02-20T10:54:26.517Z,99.90
2018-02-20T10:56:29.804Z,99.90
2018-02-20T10:58:32.499Z,99.90
2018-02-20T11:00:35.200Z,99.90
2018-02-20T11:02:37.841Z,99.90
2018-02-20T11:04:40.526Z,99.90
2018-02-20T11:06:43.196Z,99.90
2018-02-20T11:08:45.856Z,99.90
2018-02-20T11:10:48.579Z,99.90
2018-02-20T11:12:51.222Z,99.90
2018-02-20T11:14:53.962Z,99.90
2018-02-20T11:16:57.393Z,99.90
2018-02-20T11:19:00.051Z,99.90
2018-02-20T11:21:02.695Z,99.90
2018-02-20T11:23:05.373Z,99.90
2018-02-20T11:25:08.056Z,99.90
2018-02-20T11:27:11.483Z,99.90
2018-02-20T11:29:14.145Z,99.90
2018-02-20T11:31:16.804Z,99.90
2018-02-20T11:33:20.267Z,99.90
2018-02-20T11:35:22.912Z,99.90
2018-02-20T11:37:25.593Z,99.90
2018-02-20T11:39:28.282Z,99.90
2018-02-20T11:41:30.960Z,99.90
2018-02-20T11:43:34.396Z,99.90
2018-02-20T11:45:37.825Z,99.90
2018-02-20T11:47:40.500Z,99.90
2018-02-20T11:49:43.192Z,99.90
2018-02-20T11:51:45.852Z,99.90
2018-02-20T11:53:49.283Z,99.90
2018-02-20T11:55:51.963Z,99.90
2018-02-20T11:57:54.950Z,99.90
2018-02-20T11:59:57.618Z,99.90
2018-02-20T12:02:00.305Z,99.90
2018-02-20T12:04:02.953Z,99.90
2018-02-20T12:06:05.617Z,99.90
2018-02-20T12:08:08.294Z,99.90
2018-02-20T12:10:10.971Z,99.90
2018-02-20T12:12:13.641Z,99.90
2018-02-20T12:14:16.333Z,99.90
2018-02-20T12:16:18.989Z,99.90
2018-02-20T12:18:21.860Z,99.90
2018-02-20T12:20:24.624Z,99.90
2018-02-20T12:22:28.153Z,99.90
2018-02-20T12:24:30.804Z,99.90
2018-02-20T12:26:33.508Z,99.90
2018-02-20T12:28:36.178Z,99.90
2018-02-20T12:30:39.630Z,99.90
2018-02-20T12:32:43.063Z,99.90
2018-02-20T12:34:45.712Z,99.90
2018-02-20T12:36:49.183Z,99.90
2018-02-20T12:38:51.837Z,99.90
2018-02-20T12:40:55.274Z,99.90
2018-02-20T12:42:58.719Z,99.90
2018-02-20T12:45:01.379Z,99.90
2018-02-20T12:47:04.787Z,99.90
2018-02-20T12:49:08.342Z,99.90
2018-02-20T12:51:11.020Z,99.90
2018-02-20T12:53:13.683Z,99.90
2018-02-20T12:55:17.146Z,99.90
2018-02-20T12:57:20.607Z,99.90
2018-02-20T12:59:23.283Z,99.90
2018-02-20T13:01:25.943Z,99.90
2018-02-20T13:03:28.690Z,99.90
2018-02-20T13:05:32.331Z,99.90
2018-02-20T13:07:34.999Z,99.90
2018-02-20T13:09:37.671Z,99.90
2018-02-20T13:11:40.348Z,99.90
2018-02-20T13:13:43.000Z,99.90
2018-02-20T13:15:46.413Z,99.90
2018-02-20T13:17:49.486Z,99.90
2018-02-20T13:19:52.214Z,99.90
2018-02-20T13:21:54.905Z,99.90
2018-02-20T13:23:57.568Z,99.90
2018-02-20T13:26:00.325Z,99.90
2018-02-20T13:28:02.972Z,99.90
2018-02-20T13:30:08.275Z,99.90
2018-02-20T13:32:10.938Z,99.90
2018-02-20T13:34:13.596Z,99.90
2018-02-20T13:36:16.275Z,99.90
2018-02-20T13:38:18.942Z,99.90
2018-02-20T13:40:21.604Z,99.90
2018-02-20T13:42:24.266Z,99.90
2018-02-20T13:44:28.765Z,99.90
2018-02-20T13:46:32.234Z,99.90
2018-02-20T13:48:34.914Z,99.90
2018-02-20T13:50:37.554Z,99.90
2018-02-20T13:52:40.231Z,99.90
2018-02-20T13:54:42.887Z,99.90
2018-02-20T13:56:45.540Z,99.90
2018-02-20T13:58:49.197Z,99.90
2018-02-20T14:00:51.860Z,99.90
2018-02-20T14:02:54.515Z,99.90
2018-02-20T14:04:57.207Z,99.90
2018-02-20T14:06:59.874Z,99.90
2018-02-20T14:09:02.558Z,99.90
2018-02-20T14:11:05.247Z,99.90
2018-02-20T14:13:07.960Z,99.90
2018-02-20T14:15:11.454Z,99.90
2018-02-20T14:17:14.096Z,99.90
2018-02-20T14:19:16.754Z,99.90
2018-02-20T14:21:19.426Z,99.90
2018-02-20T14:23:22.163Z,99.90
2018-02-20T14:25:24.854Z,99.90
2018-02-20T14:27:28.306Z,99.90
2018-02-20T14:29:30.949Z,99.90
2018-02-20T14:31:33.647Z,99.90
2018-02-20T14:33:36.311Z,99.90
2018-02-20T14:35:39.000Z,99.90
2018-02-20T14:37:41.870Z,99.90
2018-02-20T14:39:44.524Z,99.90
2018-02-20T14:41:47.223Z,99.90
2018-02-20T14:43:50.201Z,99.90
2018-02-20T14:45:52.861Z,99.90
2018-02-20T14:47:55.528Z,99.90
2018-02-20T14:49:58.937Z,99.90
2018-02-20T14:52:01.621Z,99.90
2018-02-20T14:54:04.280Z,99.90
2018-02-20T14:56:06.956Z,99.90
2018-02-20T14:58:09.655Z,99.90
2018-02-20T15:00:12.317Z,99.90
2018-02-20T15:02:14.958Z,99.90
2018-02-20T15:04:17.682Z,99.90
2018-02-20T15:06:20.361Z,99.90
2018-02-20T15:08:23.075Z,99.90
2018-02-20T15:10:25.748Z,99.90
2018-02-20T15:12:28.424Z,99.90
2018-02-20T15:14:31.108Z,99.90
2018-02-20T15:16:33.815Z,99.90
2018-02-20T15:18:37.235Z,99.90
2018-02-20T15:20:40.247Z,99.90
2018-02-20T15:22:42.981Z,99.90
2018-02-20T15:24:45.693Z,99.90
2018-02-20T15:26:48.436Z,99.90
2018-02-20T15:28:51.905Z,99.90
2018-02-20T15:30:55.639Z,99.90
2018-02-20T15:32:58.289Z,99.90
2018-02-20T15:35:03.100Z,99.90
2018-02-20T15:37:06.243Z,99.90
2018-02-20T15:39:09.329Z,99.90
2018-02-20T15:41:12.021Z,99.90
2018-02-20T15:43:14.719Z,99.90
2018-02-20T15:45:17.356Z,99.90
2018-02-20T15:47:20.070Z,99.90
2018-02-20T15:49:22.712Z,99.90
2018-02-20T15:51:25.357Z,99.90
2018-02-20T15:53:28.210Z,99.90
2018-02-20T15:55:31.007Z,99.90
2018-02-20T15:57:34.420Z,99.90
2018-02-20T15:59:37.323Z,99.90
2018-02-20T16:01:40.891Z,99.90
2018-02-20T16:03:43.551Z,99.90
2018-02-20T16:05:47.208Z,99.90
2018-02-20T16:07:49.858Z,99.90
2018-02-20T16:09:52.511Z,99.90
2018-02-20T16:11:55.956Z,99.90
2018-02-20T16:14:04.335Z,99.90
2018-02-20T16:16:08.549Z,99.90
2018-02-20T16:18:11.221Z,99.90
2018-02-20T16:20:13.936Z,99.90
2018-02-20T16:22:16.603Z,99.90
2018-02-20T16:24:19.526Z,99.90
2018-02-20T16:26:22.950Z,99.90
2018-02-20T16:28:25.640Z,99.90
2018-02-20T16:30:28.316Z,99.90
2018-02-20T16:32:30.981Z,99.90
2018-02-20T16:34:33.671Z,99.90
2018-02-20T16:36:36.506Z,99.90
2018-02-20T16:38:39.998Z,99.90
2018-02-20T16:40:44.966Z,99.90
2018-02-20T16:42:47.755Z,99.90
2018-02-20T16:44:52.575Z,99.90
2018-02-20T16:46:55.259Z,99.90
2018-02-20T16:48:57.904Z,99.90
2018-02-20T16:51:00.612Z,99.90
2018-02-20T16:53:03.353Z,99.90
2018-02-20T16:55:06.775Z,99.90
2018-02-20T16:57:09.446Z,99.90
2018-02-20T16:59:12.085Z,99.90
2018-02-20T17:01:15.516Z,99.90
2018-02-20T17:03:18.212Z,99.90
2018-02-20T17:05:20.892Z,99.90
2018-02-20T17:07:23.558Z,99.90
2018-02-20T17:09:26.250Z,99.90
2018-02-20T17:11:28.934Z,99.90
2018-02-20T17:13:31.686Z,99.90
2018-02-20T17:15:34.451Z,99.90
2018-02-20T17:17:37.112Z,99.90
2018-02-20T17:19:40.259Z,99.90
2018-02-20T17:21:44.772Z,99.90
2018-02-20T17:23:47.590Z,99.90
2018-02-20T17:25:50.464Z,99.90
2018-02-20T17:27:53.913Z,99.90
2018-02-20T17:29:56.565Z,99.90
2018-02-20T17:31:59.336Z,99.90
2018-02-20T17:34:02.022Z,99.90
2018-02-20T17:36:04.773Z,99.90
2018-02-20T17:38:07.440Z,99.90
2018-02-20T17:40:10.895Z,99.90
2018-02-20T17:42:13.567Z,99.90
2018-02-20T17:44:16.342Z,99.90
2018-02-20T17:46:18.981Z,99.90
2018-02-20T17:48:21.671Z,99.90
2018-02-20T17:50:24.373Z,99.90
2018-02-20T17:52:27.041Z,99.90
2018-02-20T17:54:30.667Z,99.90
2018-02-20T17:56:33.335Z,99.90
2018-02-20T17:58:36.001Z,99.90
2018-02-20T18:00:38.730Z,99.90
2018-02-20T18:02:42.185Z,99.90
2018-02-20T18:04:46.162Z,99.90
2018-02-20T18:06:49.262Z,99.90
2018-02-20T18:08:51.942Z,99.90
2018-02-20T18:10:54.602Z,99.90
2018-02-20T18:12:57.265Z,99.90
2018-02-20T18:14:59.950Z,99.90
2018-02-20T18:17:04.051Z,99.90
2018-02-20T18:19:06.752Z,99.90
2018-02-20T18:21:09.461Z,99.90
2018-02-20T18:23:12.149Z,99.90
2018-02-20T18:25:15.605Z,99.90
2018-02-20T18:27:18.270Z,99.90
2018-02-20T18:29:20.999Z,99.90
2018-02-20T18:31:25.567Z,99.90
2018-02-20T18:33:28.294Z,99.90
2018-02-20T18:35:31.716Z,99.90
2018-02-20T18:37:34.388Z,99.90
2018-02-20T18:39:37.026Z,99.90
2018-02-20T18:41:39.687Z,99.90
2018-02-20T18:43:42.376Z,99.90
2018-02-20T18:45:45.032Z,99.90
2018-02-20T18:47:47.673Z,99.90
2018-02-20T18:49:50.360Z,99.90
2018-02-20T18:51:52.999Z,99.90
2018-02-20T18:53:56.483Z,99.90
2018-02-20T18:55:59.959Z,99.90
2018-02-20T18:58:03.408Z,99.90
2018-02-20T19:00:06.066Z,99.90
2018-02-20T19:02:09.518Z,99.90
2018-02-20T19:04:12.189Z,99.90
2018-02-20T19:06:14.886Z,99.90
2018-02-20T19:08:17.585Z,99.90
2018-02-20T19:10:21.072Z,99.90
2018-02-20T19:12:24.524Z,99.90
2018-02-20T19:14:27.197Z,99.90
2018-02-20T19:16:29.857Z,99.90
2018-02-20T19:18:32.524Z,99.90
2018-02-20T19:20:35.214Z,99.90
2018-02-20T19:22:37.975Z,99.90
2018-02-20T19:24:40.762Z,99.90
2018-02-20T19:26:43.428Z,99.90
2018-02-20T19:28:46.082Z,99.90
2018-02-20T19:30:49.519Z,99.90
2018-02-20T19:32:52.270Z,99.90
2018-02-20T19:34:54.938Z,99.90
2018-02-20T19:36:58.364Z,99.90
2018-02-20T19:39:01.077Z,99.90
2018-02-20T19:41:03.741Z,99.90
2018-02-20T19:43:07.270Z,99.90
2018-02-20T19:45:10.676Z,99.90
2018-02-20T19:47:14.095Z,99.90
2018-02-20T19:49:16.783Z,99.90
2018-02-20T19:51:19.435Z,99.90
2018-02-20T19:53:22.289Z,99.90
2018-02-20T19:55:25.002Z,99.90
2018-02-20T19:57:27.673Z,99.90
2018-02-20T19:59:30.373Z,99.90
2018-02-20T20:01:33.068Z,99.90
2018-02-20T20:03:35.762Z,99.90
2018-02-20T20:05:38.444Z,99.90
2018-02-20T20:07:42.020Z,99.90
2018-02-20T20:09:44.803Z,99.90
2018-02-20T20:11:47.466Z,99.90
2018-02-20T20:13:50.155Z,99.90
2018-02-20T20:15:52.914Z,99.90
2018-02-20T20:17:56.719Z,99.90
2018-02-20T20:19:59.388Z,99.90
2018-02-20T20:22:02.067Z,99.90
2018-02-20T20:24:04.717Z,99.90
2018-02-20T20:26:07.419Z,99.90
2018-02-20T20:28:10.169Z,99.90
2018-02-20T20:30:13.051Z,99.90
2018-02-20T20:32:15.711Z,99.90
2018-02-20T20:34:18.551Z,99.90
2018-02-20T20:36:21.577Z,99.90
2018-02-20T20:38:24.235Z,99.90
2018-02-20T20:40:27.152Z,99.90
2018-02-20T20:42:29.858Z,99.90
2018-02-20T20:44:32.727Z,99.90
2018-02-20T20:46:35.387Z,99.90
2018-02-20T20:48:38.044Z,99.90
2018-02-20T20:50:40.837Z,99.90
2018-02-20T20:52:43.479Z,99.90
2018-02-20T20:54:47.253Z,99.90
2018-02-20T20:56:50.156Z,99.90
2018-02-20T20:58:53.063Z,99.90
2018-02-20T21:00:55.754Z,99.90
2018-02-20T21:02:58.430Z,99.90
2018-02-20T21:05:01.232Z,99.90
2018-02-20T21:07:03.958Z,99.90
2018-02-20T21:09:07.499Z,99.90
2018-02-20T21:11:10.165Z,99.90
2018-02-20T21:13:12.842Z,99.90
2018-02-20T21:15:15.610Z,99.90
2018-02-20T21:17:18.379Z,99.90
2018-02-20T21:19:21.088Z,99.90
2018-02-20T21:21:23.812Z,99.90
2018-02-20T21:23:26.458Z,99.90
2018-02-20T21:25:29.137Z,99.90
2018-02-20T21:27:31.865Z,99.90
2018-02-20T21:29:34.565Z,99.90
2018-02-20T21:31:37.226Z,99.90
2018-02-20T21:33:39.927Z,99.90
2018-02-20T21:35:42.706Z,99.90
2018-02-20T21:37:45.466Z,99.90
2018-02-20T21:39:48.238Z,99.90
2018-02-20T21:41:51.244Z,99.90
2018-02-20T21:43:53.944Z,99.90
2018-02-20T21:45:56.608Z,99.90
2018-02-20T21:47:59.297Z,99.90
2018-02-20T21:50:01.952Z,99.90
2018-02-20T21:52:04.769Z,99.90
2018-02-20T21:54:07.586Z,99.90
2018-02-20T21:56:10.251Z,99.90
2018-02-20T21:58:12.907Z,99.90
2018-02-20T22:00:16.419Z,99.90
2018-02-20T22:02:19.087Z,99.90
2018-02-20T22:04:22.504Z,99.90
2018-02-20T22:06:25.359Z,99.90
2018-02-20T22:08:28.863Z,99.90
2018-02-20T22:10:31.660Z,99.90
2018-02-20T22:12:34.461Z,99.90
2018-02-20T22:14:37.136Z,99.90
2018-02-20T22:16:39.808Z,99.90
2018-02-20T22:18:42.476Z,99.90
2018-02-20T22:20:45.143Z,99.90
2018-02-20T22:22:47.846Z,99.90
2018-02-20T22:24:50.524Z,99.90
2018-02-20T22:26:53.181Z,99.90
2018-02-20T22:28:55.847Z,99.90
2018-02-20T22:30:58.523Z,99.90
2018-02-20T22:33:01.192Z,99.90
2018-02-20T22:35:03.943Z,99.90
2018-02-20T22:37:07.423Z,99.90
2018-02-20T22:39:10.077Z,99.90
2018-02-20T22:41:12.819Z,99.90
2018-02-20T22:43:15.483Z,99.90
2018-02-20T22:45:18.171Z,99.90
2018-02-20T22:47:20.936Z,99.90
2018-02-20T22:49:23.616Z,99.90
2018-02-20T22:51:26.490Z,99.90
2018-02-20T22:53:29.182Z,99.90
2018-02-20T22:55:31.858Z,99.90
2018-02-20T22:57:34.544Z,99.90
2018-02-20T22:59:37.216Z,99.90
2018-02-20T23:01:39.886Z,99.90
2018-02-20T23:03:42.566Z,99.90
2018-02-20T23:05:45.240Z,99.90
2018-02-20T23:07:48.011Z,99.90
2018-02-20T23:09:50.664Z,99.90
2018-02-20T23:11:54.081Z,99.90
2018-02-20T23:13:56.769Z,99.90
2018-02-20T23:15:59.417Z,99.90
2018-02-20T23:18:02.861Z,99.90
2018-02-20T23:20:05.528Z,99.90
2018-02-20T23:22:08.214Z,99.90
2018-02-20T23:24:10.896Z,99.90
2018-02-20T23:26:13.553Z,99.90
2018-02-20T23:28:16.227Z,99.90
2018-02-20T23:30:18.940Z,99.90
2018-02-20T23:32:21.602Z,99.90
2018-02-20T23:34:24.275Z,99.90
2018-02-20T23:36:26.971Z,99.90
2018-02-20T23:38:29.609Z,99.90
2018-02-20T23:40:32.271Z,99.90
2018-02-20T23:42:34.984Z,99.90
2018-02-20T23:44:37.637Z,99.90
2018-02-20T23:46:40.302Z,99.90
2018-02-20T23:48:43.086Z,99.90
2018-02-20T23:50:45.762Z,99.90
2018-02-20T23:52:48.494Z,99.90
2018-02-20T23:54:51.938Z,99.90
2018-02-20T23:56:54.604Z,99.90
2018-02-20T23:58:57.267Z,99.90
